Time;durP1;ratioP1;P1;durP2;ratioP2;P2;SDS_P1;SDS_P2;PMS_P1;PMS_P2;Temp;Humidity;BMP_temperature;BMP_pressure;BME280_temperature;BME280_humidity;BME280_pressure;Samples;Min_cycle;Max_cycle;Signal;HPM_P1;HPM_P2
2021/06/07 00:01:24;;;;;;;10.00;3.95;;;19.40;86.10;;;20.12;48.28;101580.13;5072806;28;20669;-66
2021/06/07 00:03:50;;;;;;;10.82;4.57;;;19.30;86.10;;;20.09;48.41;101579.47;5071883;28;20184;-66
2021/06/07 00:06:19;;;;;;;15.32;5.93;;;19.30;86.10;;;20.06;48.14;101577.00;5072504;28;20696;-69
2021/06/07 00:08:46;;;;;;;11.52;4.57;;;19.30;85.90;;;19.98;48.15;101588.09;5072807;28;20199;-66
2021/06/07 00:11:13;;;;;;;10.30;4.40;;;19.20;85.70;;;19.90;48.23;101582.41;5072553;28;20191;-67
2021/06/07 00:13:44;;;;;;;8.60;3.45;;;19.10;85.90;;;19.81;48.46;101581.19;5057358;28;20214;-67
2021/06/07 00:16:11;;;;;;;8.13;3.08;;;19.10;85.90;;;19.73;48.46;101583.47;5076314;28;20692;-67
2021/06/07 00:18:38;;;;;;;8.05;3.05;;;19.00;86.10;;;19.68;48.55;101579.38;5076499;28;20180;-66
2021/06/07 00:21:10;;;;;;;8.68;2.90;;;18.90;86.30;;;19.65;48.74;101582.22;5076241;28;20192;-67
2021/06/07 00:23:40;;;;;;;7.05;2.80;;;18.80;86.60;;;19.65;48.68;101572.44;5076503;28;20195;-67
2021/06/07 00:26:08;;;;;;;8.13;2.85;;;18.80;86.70;;;19.65;49.00;101577.75;5058430;28;20223;-66
2021/06/07 00:28:35;;;;;;;9.48;2.78;;;18.80;87.10;;;19.66;49.13;101578.59;5076410;28;20230;-65
2021/06/07 00:31:04;;;;;;;10.80;3.05;;;18.80;87.30;;;19.62;49.09;101580.63;5076067;28;20722;-66
2021/06/07 00:33:31;;;;;;;7.60;2.85;;;18.70;87.40;;;19.59;49.29;101570.16;5054926;28;20196;-66
2021/06/07 00:35:58;;;;;;;8.98;3.05;;;18.70;87.50;;;19.60;49.29;101574.53;5073315;28;20207;-67
2021/06/07 00:38:25;;;;;;;7.85;2.47;;;18.70;87.50;;;19.59;49.32;101569.31;5076269;28;20188;-67
2021/06/07 00:40:53;;;;;;;8.68;2.63;;;18.70;87.60;;;19.61;49.53;101580.69;5058233;28;20193;-67
2021/06/07 00:43:19;;;;;;;6.70;2.60;;;18.70;87.80;;;19.56;49.42;101580.09;5058254;28;20540;-67
2021/06/07 00:45:46;;;;;;;7.75;2.90;;;18.70;88.00;;;19.51;49.59;101577.75;5075972;28;20200;-67
2021/06/07 00:48:12;;;;;;;7.90;2.78;;;18.70;88.10;;;19.47;49.68;101576.22;5058218;28;20192;-66
2021/06/07 00:50:45;;;;;;;7.25;2.63;;;18.60;88.00;;;19.45;49.53;101574.59;5074487;28;20192;-66
2021/06/07 00:53:17;;;;;;;7.78;2.90;;;18.60;88.10;;;19.44;49.59;101573.75;5076785;28;20258;-67
2021/06/07 00:55:50;;;;;;;7.75;2.92;;;18.60;88.20;;;19.43;49.75;101572.03;5058979;28;20261;-67
2021/06/07 00:58:21;;;;;;;9.38;3.17;;;18.50;88.20;;;19.39;49.90;101570.50;5075700;28;20579;-66
2021/06/07 01:00:47;;;;;;;7.18;2.72;;;18.50;88.50;;;19.36;49.76;101569.84;5075403;28;20271;-67
2021/06/07 01:03:16;;;;;;;8.45;3.00;;;18.50;88.40;;;19.31;49.85;101571.91;5075471;28;20184;-66
2021/06/07 01:05:43;;;;;;;7.55;2.85;;;18.40;88.30;;;19.27;50.04;101576.53;5056787;28;20216;-67
2021/06/07 01:08:10;;;;;;;11.23;3.13;;;18.40;88.40;;;19.27;49.94;101581.84;5076143;28;20679;-66
2021/06/07 01:10:37;;;;;;;9.15;2.53;;;18.40;88.30;;;19.25;49.88;101577.56;5075841;28;20661;-66
2021/06/07 01:13:03;;;;;;;9.82;3.20;;;18.40;88.60;;;19.21;50.19;101576.88;5074449;28;20679;-66
2021/06/07 01:15:31;;;;;;;8.43;3.20;;;18.30;88.60;;;19.18;50.29;101574.41;5075969;28;20216;-66
2021/06/07 01:17:58;;;;;;;9.15;3.40;;;18.30;89.10;;;19.14;50.49;101567.56;5075884;28;20216;-66
2021/06/07 01:20:26;;;;;;;7.32;2.70;;;18.40;89.30;;;19.12;50.31;101576.59;5074386;28;20195;-66
2021/06/07 01:22:54;;;;;;;7.40;2.78;;;18.30;89.30;;;19.09;50.54;101576.78;5057039;28;20195;-66
2021/06/07 01:25:26;;;;;;;8.55;2.97;;;18.30;89.40;;;19.06;50.62;101567.19;5075061;28;20224;-66
2021/06/07 01:27:55;;;;;;;10.32;3.40;;;18.20;89.50;;;19.01;50.69;101571.91;5075153;28;20172;-67
2021/06/07 01:30:27;;;;;;;7.10;2.80;;;18.20;89.70;;;19.00;51.12;101567.56;5074955;28;20184;-67
2021/06/07 01:32:53;;;;;;;10.63;3.50;;;18.10;90.00;;;18.97;51.22;101570.38;5074622;28;20200;-67
2021/06/07 01:35:21;;;;;;;7.80;3.22;;;18.10;90.10;;;18.92;51.44;101571.59;5075162;28;20214;-68
2021/06/07 01:37:50;;;;;;;9.43;3.05;;;18.10;90.40;;;18.83;51.90;101570.31;5074887;28;20223;-67
2021/06/07 01:40:21;;;;;;;8.38;3.00;;;18.00;90.50;;;18.77;51.96;101566.22;5057019;28;20199;-67
2021/06/07 01:42:48;;;;;;;7.97;2.78;;;17.90;90.50;;;18.71;51.99;101563.06;5075558;28;20203;-67
2021/06/07 01:45:20;;;;;;;7.35;2.72;;;17.90;90.70;;;18.69;52.17;101563.16;5074696;28;20648;-67
2021/06/07 01:47:47;;;;;;;8.55;3.53;;;17.80;90.70;;;18.65;52.61;101563.44;5075331;28;20192;-67
2021/06/07 01:50:14;;;;;;;9.18;2.80;;;17.80;90.90;;;18.66;52.49;101570.44;5074950;28;20199;-67
2021/06/07 01:52:44;;;;;;;9.10;3.03;;;17.80;91.00;;;18.63;52.83;101563.53;5075066;28;20184;-67
2021/06/07 01:55:12;;;;;;;8.23;2.90;;;17.80;91.30;;;18.57;53.41;101566.50;5075001;28;20184;-66
2021/06/07 01:57:41;;;;;;;8.88;3.35;;;17.70;91.40;;;18.52;53.44;101563.25;5074571;28;20211;-66
2021/06/07 02:00:13;;;;;;;9.63;3.50;;;17.70;91.50;;;18.46;53.68;101560.97;5057070;28;20394;-66
2021/06/07 02:02:44;;;;;;;8.93;3.10;;;17.60;91.80;;;18.39;54.26;101569.31;5074192;28;20200;-67
2021/06/07 02:05:12;;;;;;;8.48;3.30;;;17.60;91.90;;;18.31;54.36;101563.56;5073664;28;20184;-66
2021/06/07 02:07:44;;;;;;;11.63;3.60;;;17.50;92.00;;;18.29;54.50;101568.09;5073707;28;20196;-66
2021/06/07 02:10:13;;;;;;;6.65;3.08;;;17.50;92.20;;;18.25;54.76;101570.06;5073659;28;20243;-67
2021/06/07 02:12:41;;;;;;;8.10;3.17;;;17.50;92.40;;;18.22;54.82;101574.72;5074117;28;20196;-66
2021/06/07 02:15:11;;;;;;;7.75;2.92;;;17.40;92.40;;;18.19;55.22;101565.13;5074915;28;20660;-66
2021/06/07 02:17:38;;;;;;;8.88;3.30;;;17.40;92.60;;;18.13;55.40;101569.91;5074539;28;20208;-66
2021/06/07 02:20:09;;;;;;;8.00;3.30;;;17.30;92.70;;;18.09;55.64;101569.22;5056510;28;20245;-67
2021/06/07 02:22:36;;;;;;;8.93;3.63;;;17.40;92.90;;;18.08;55.99;101558.69;5074692;28;20191;-65
2021/06/07 02:25:06;;;;;;;9.82;3.17;;;17.30;93.00;;;18.08;55.77;101564.00;5074213;28;20195;-68
2021/06/07 02:27:33;;;;;;;8.60;3.45;;;17.30;93.10;;;18.07;56.17;101567.59;5074236;28;20184;-66
2021/06/07 02:30:04;;;;;;;9.45;3.83;;;17.30;93.40;;;18.04;56.23;101573.03;5073178;28;20558;-67
2021/06/07 02:32:30;;;;;;;9.00;3.22;;;17.30;93.30;;;18.00;56.44;101572.34;5074021;28;20674;-66
2021/06/07 02:34:56;;;;;;;7.90;3.20;;;17.20;93.50;;;17.94;56.60;101571.84;5073167;28;20209;-66
2021/06/07 02:37:22;;;;;;;10.05;3.90;;;17.20;93.60;;;17.90;56.85;101575.59;5056321;28;20216;-66
2021/06/07 02:39:51;;;;;;;8.93;3.08;;;17.20;93.80;;;17.85;57.00;101577.66;5056413;28;20688;-66
2021/06/07 02:42:17;;;;;;;8.20;3.30;;;17.10;93.80;;;17.85;56.87;101578.47;5073904;28;20200;-66
2021/06/07 02:44:44;;;;;;;7.75;3.25;;;17.10;93.80;;;17.86;56.97;101584.63;5074131;28;20199;-66
2021/06/07 02:47:11;;;;;;;9.77;3.67;;;17.10;94.00;;;17.87;57.14;101578.38;5072691;28;20218;-66
2021/06/07 02:49:37;;;;;;;10.10;3.40;;;17.10;94.10;;;17.81;57.26;101581.38;5074563;28;20189;-66
2021/06/07 02:52:05;;;;;;;8.55;3.33;;;17.00;94.20;;;17.78;57.36;101581.56;5074398;28;20188;-66
2021/06/07 02:54:31;;;;;;;9.70;3.40;;;17.00;94.30;;;17.74;57.31;101574.69;5074492;28;20184;-66
2021/06/07 02:56:57;;;;;;;8.43;3.15;;;17.00;94.50;;;17.70;57.60;101586.41;5073661;28;20205;-66
2021/06/07 02:59:24;;;;;;;8.63;3.45;;;16.90;94.60;;;17.65;57.62;101585.78;5073853;28;20677;-66
2021/06/07 03:01:50;;;;;;;7.78;3.40;;;16.90;94.70;;;17.63;57.69;101588.53;5071937;28;20188;-66
2021/06/07 03:04:18;;;;;;;9.82;3.72;;;16.90;94.70;;;17.63;57.68;101577.94;5072807;28;20670;-66
2021/06/07 03:06:44;;;;;;;9.70;3.40;;;16.90;94.70;;;17.64;57.51;101581.41;5070377;28;20226;-66
2021/06/07 03:09:10;;;;;;;8.57;3.58;;;16.90;94.80;;;17.61;57.63;101582.44;5071219;28;20669;-65
2021/06/07 03:11:37;;;;;;;9.55;4.00;;;16.90;95.00;;;17.60;57.93;101582.53;5071658;28;20191;-65
2021/06/07 03:14:03;;;;;;;8.50;3.38;;;16.90;95.00;;;17.56;58.05;101581.84;5072264;28;20203;-65
2021/06/07 03:16:29;;;;;;;8.65;3.55;;;16.80;95.10;;;17.53;58.17;101582.84;5073669;28;20212;-65
2021/06/07 03:18:56;;;;;;;8.40;3.58;;;16.80;95.20;;;17.57;57.90;101582.66;5073011;28;20184;-66
2021/06/07 03:21:24;;;;;;;13.65;4.10;;;16.80;95.20;;;17.55;58.36;101590.69;5073016;28;20195;-66
2021/06/07 03:23:50;;;;;;;9.55;3.58;;;16.80;95.40;;;17.54;58.35;101583.69;5073440;28;20184;-66
2021/06/07 03:26:16;;;;;;;9.85;3.88;;;16.80;95.60;;;17.50;58.56;101583.00;5055077;28;20259;-66
2021/06/07 03:28:43;;;;;;;9.98;3.60;;;16.80;95.60;;;17.51;58.57;101584.69;5073090;28;20184;-66
2021/06/07 03:31:10;;;;;;;11.73;4.00;;;16.80;95.80;;;17.48;58.59;101584.88;5072878;28;20184;-66
2021/06/07 03:33:37;;;;;;;9.60;4.20;;;16.80;95.80;;;17.46;58.73;101581.44;5073223;28;20680;-66
2021/06/07 03:36:05;;;;;;;9.68;3.90;;;16.80;95.80;;;17.46;58.72;101583.25;5072378;28;20215;-66
2021/06/07 03:38:34;;;;;;;11.82;4.38;;;16.80;95.80;;;17.46;58.48;101588.53;5054732;28;20192;-66
2021/06/07 03:41:02;;;;;;;9.55;4.00;;;16.80;95.90;;;17.45;58.51;101590.31;5072700;28;20665;-65
2021/06/07 03:43:31;;;;;;;9.80;3.65;;;16.80;96.00;;;17.46;58.53;101593.84;5054952;28;20188;-66
2021/06/07 03:45:59;;;;;;;10.50;4.00;;;16.80;96.00;;;17.45;58.60;101592.97;5072914;28;20211;-66
2021/06/07 03:48:26;;;;;;;11.52;4.88;;;16.80;96.30;;;17.41;59.17;101588.72;5072873;28;20657;-66
2021/06/07 03:50:54;;;;;;;10.70;4.35;;;16.80;96.50;;;17.40;59.31;101594.97;5054547;28;20195;-66
2021/06/07 03:53:21;;;;;;;11.73;3.88;;;16.80;96.50;;;17.40;59.12;101588.81;5071649;28;20241;-66
2021/06/07 03:55:49;;;;;;;10.05;4.28;;;16.80;96.60;;;17.36;59.54;101593.41;5071535;28;20208;-65
2021/06/07 03:58:15;;;;;;;9.15;3.80;;;16.70;96.90;;;17.36;59.68;101585.47;5054668;28;20222;-66
2021/06/07 04:00:41;;;;;;;11.82;4.53;;;16.70;96.80;;;17.39;59.37;101589.75;5072305;28;20184;-65
2021/06/07 04:03:11;;;;;;;9.13;4.00;;;16.70;96.80;;;17.39;59.39;101593.25;5072304;28;20180;-66
2021/06/07 04:05:39;;;;;;;9.45;3.78;;;16.80;96.90;;;17.40;59.70;101594.97;5072185;28;20204;-66
2021/06/07 04:08:07;;;;;;;9.27;3.90;;;16.80;97.20;;;17.43;59.52;101586.84;5053982;28;20548;-66
2021/06/07 04:10:34;;;;;;;9.18;3.47;;;16.80;97.40;;;17.43;59.60;101592.16;5073141;28;20203;-66
2021/06/07 04:13:03;;;;;;;9.52;3.70;;;16.80;97.20;;;17.43;59.66;101589.50;5072701;28;20718;-65
2021/06/07 04:15:30;;;;;;;9.15;3.53;;;16.80;97.30;;;17.45;59.59;101595.63;5055729;28;20227;-65
2021/06/07 04:17:57;;;;;;;8.98;3.90;;;16.80;97.50;;;17.47;59.93;101601.69;5073644;28;20223;-66
2021/06/07 04:20:27;;;;;;;8.35;3.33;;;16.80;97.30;;;17.49;59.41;101597.19;5073389;28;20563;-66
2021/06/07 04:22:53;;;;;;;9.20;3.67;;;16.80;97.20;;;17.50;59.28;101612.13;5073300;28;20188;-66
2021/06/07 04:25:23;;;;;;;9.80;3.95;;;16.90;97.30;;;17.56;58.94;101612.72;5072755;28;20211;-66
2021/06/07 04:27:51;;;;;;;8.82;3.63;;;17.00;97.20;;;17.60;59.05;101609.00;5068229;28;20218;-66
2021/06/07 04:30:23;;;;;;;8.30;3.63;;;17.00;97.30;;;17.61;58.98;101611.56;5072087;28;20192;-66
2021/06/07 04:32:52;;;;;;;9.63;3.60;;;17.00;97.40;;;17.61;59.10;101616.00;5072500;28;20195;-66
2021/06/07 04:35:20;;;;;;;9.15;3.55;;;17.10;97.20;;;17.63;58.92;101616.78;5064788;28;20253;-66
2021/06/07 04:37:50;;;;;;;10.10;3.75;;;17.10;97.10;;;17.62;58.51;101615.91;5072731;28;20204;-65
2021/06/07 04:40:20;;;;;;;9.43;3.70;;;17.10;97.10;;;17.67;58.72;101610.38;5072838;28;20649;-66
2021/06/07 04:42:47;;;;;;;8.95;3.70;;;17.10;97.20;;;17.72;58.57;101610.97;5054831;28;20632;-66
2021/06/07 04:45:15;;;;;;;11.52;3.78;;;17.20;97.10;;;17.76;58.33;101616.06;5071145;28;20287;-66
2021/06/07 04:47:43;;;;;;;10.82;4.10;;;17.20;97.00;;;17.78;58.39;101614.19;5072667;28;20192;-66
2021/06/07 04:50:12;;;;;;;9.73;3.60;;;17.20;97.10;;;17.80;58.21;101612.28;5071039;28;20215;-66
2021/06/07 04:55:25;;;;;;;11.35;4.22;;;17.30;97.10;;;17.86;58.10;101612.00;5073155;28;20216;-65
2021/06/07 04:57:51;;;;;;;8.60;3.45;;;17.40;97.00;;;17.90;58.17;101615.34;5073168;28;20612;-65
2021/06/07 05:00:21;;;;;;;8.73;3.67;;;17.40;97.10;;;17.92;58.40;101610.78;5074920;28;20214;-63
2021/06/07 05:02:50;;;;;;;9.07;3.85;;;17.50;97.10;;;17.95;58.26;101608.00;5058269;28;20203;-66
2021/06/07 05:05:17;;;;;;;10.25;3.90;;;17.50;97.10;;;17.99;58.33;101604.22;5066668;28;20216;-66
2021/06/07 05:07:44;;;;;;;9.85;3.80;;;17.60;97.10;;;18.04;58.30;101607.50;5075876;28;20253;-66
2021/06/07 05:10:11;;;;;;;9.00;3.53;;;17.60;97.20;;;18.06;58.17;101608.25;5058177;28;20211;-66
2021/06/07 05:12:38;;;;;;;9.77;4.18;;;17.70;97.10;;;18.10;58.16;101609.81;5074673;28;20831;-67
2021/06/07 05:15:07;;;;;;;9.07;3.92;;;17.70;97.30;;;18.16;58.24;101606.81;5075897;28;20250;-66
2021/06/07 05:17:33;;;;;;;12.30;3.70;;;17.70;97.20;;;18.21;58.02;101607.44;5058625;28;20575;-66
2021/06/07 05:20:03;;;;;;;10.52;4.10;;;17.80;97.10;;;18.27;58.13;101607.94;5076587;28;20680;-67
2021/06/07 05:22:29;;;;;;;10.35;3.58;;;17.80;97.40;;;18.32;57.88;101618.31;5058296;28;20671;-66
2021/06/07 05:24:56;;;;;;;9.65;4.00;;;17.90;96.90;;;18.34;57.62;101616.41;5058553;28;20198;-66
2021/06/07 05:27:22;;;;;;;9.32;3.67;;;17.90;96.70;;;18.39;57.17;101617.03;5076435;28;20188;-66
2021/06/07 05:29:48;;;;;;;9.20;3.20;;;18.00;96.50;;;18.45;56.63;101616.72;5057823;28;20569;-67
2021/06/07 05:32:15;;;;;;;8.65;3.35;;;18.00;96.30;;;18.47;56.51;101621.00;5076028;28;20189;-66
2021/06/07 05:34:41;;;;;;;9.23;3.40;;;18.00;96.30;;;18.53;56.07;101622.47;5057988;28;20207;-66
2021/06/07 05:37:08;;;;;;;9.60;3.30;;;18.10;95.80;;;18.57;55.76;101622.19;5057469;28;20673;-66
2021/06/07 05:39:35;;;;;;;8.07;3.20;;;18.10;95.80;;;18.58;55.43;101628.38;5075347;28;20188;-66
2021/06/07 05:42:01;;;;;;;10.40;3.50;;;18.10;95.50;;;18.61;55.20;101631.69;5074949;28;20204;-66
2021/06/07 05:44:27;;;;;;;8.77;3.40;;;18.20;95.60;;;18.65;55.48;101630.56;5075827;28;20563;-66
2021/06/07 05:46:54;;;;;;;9.82;3.50;;;18.30;95.60;;;18.72;55.39;101633.75;5076253;28;20779;-66
2021/06/07 05:49:21;;;;;;;10.70;3.80;;;18.40;95.40;;;18.77;55.23;101629.88;5076034;28;20188;-66
2021/06/07 05:51:47;;;;;;;9.23;3.40;;;18.50;95.20;;;18.85;54.85;101640.06;5057228;28;20192;-66
2021/06/07 05:54:15;;;;;;;9.27;3.35;;;18.60;95.00;;;18.92;54.82;101636.13;5075148;28;20184;-66
2021/06/07 05:56:41;;;;;;;11.68;3.72;;;18.70;95.00;;;19.00;54.66;101638.34;5074969;28;20211;-65
2021/06/07 05:59:08;;;;;;;9.68;3.15;;;18.80;94.80;;;18.99;54.44;101648.09;5073705;28;20189;-66
2021/06/07 06:01:35;;;;;;;11.23;3.72;;;18.80;94.90;;;19.02;54.55;101639.09;5073438;28;20192;-66
2021/06/07 06:04:03;;;;;;;8.43;2.90;;;18.90;94.90;;;19.08;54.66;101638.75;5075136;28;20191;-65
2021/06/07 06:06:31;;;;;;;8.00;3.10;;;18.90;94.80;;;19.17;54.85;101640.88;5073901;28;20223;-66
2021/06/07 06:08:58;;;;;;;8.48;3.28;;;19.00;94.80;;;19.23;54.56;101641.38;5068181;28;20291;-65
2021/06/07 06:11:25;;;;;;;7.68;3.35;;;19.10;94.60;;;19.26;54.04;101649.16;5074744;28;20195;-66
2021/06/07 06:13:52;;;;;;;9.48;3.15;;;19.10;94.60;;;19.28;54.11;101641.97;5074957;28;20184;-67
2021/06/07 06:16:21;;;;;;;12.18;3.10;;;19.10;94.60;;;19.29;54.19;101646.34;5074869;28;20208;-66
2021/06/07 06:18:47;;;;;;;9.55;3.20;;;19.10;94.70;;;19.31;54.65;101641.81;5075742;28;20218;-66
2021/06/07 06:21:14;;;;;;;8.48;3.38;;;19.20;94.60;;;19.38;53.93;101640.50;5075426;28;20194;-66
2021/06/07 06:23:41;;;;;;;9.68;3.20;;;19.30;94.50;;;19.49;53.91;101645.19;5057758;28;20188;-65
2021/06/07 06:26:09;;;;;;;8.13;3.08;;;19.30;94.40;;;19.57;53.61;101633.16;5075547;28;20787;-67
2021/06/07 06:28:38;;;;;;;10.40;3.22;;;19.40;94.40;;;19.61;53.44;101639.97;5075843;28;20661;-66
2021/06/07 06:31:06;;;;;;;11.85;3.50;;;19.40;94.40;;;19.64;53.46;101638.97;5057766;28;20714;-65
2021/06/07 06:33:33;;;;;;;9.88;3.22;;;19.50;94.10;;;19.70;53.29;101636.78;5074095;28;20203;-66
2021/06/07 06:36:01;;;;;;;9.13;3.30;;;19.50;94.10;;;19.79;53.38;101633.56;5065612;28;20216;-67
2021/06/07 06:38:27;;;;;;;7.10;2.83;;;19.60;93.90;;;19.84;53.21;101633.28;5075120;28;20207;-68
2021/06/07 06:40:54;;;;;;;9.52;2.97;;;19.70;94.00;;;19.88;53.00;101638.31;5075118;28;20184;-66
2021/06/07 06:43:21;;;;;;;12.10;3.60;;;19.70;93.60;;;19.94;52.47;101637.94;5057462;28;20192;-66
2021/06/07 06:45:49;;;;;;;10.68;3.67;;;19.80;93.40;;;20.03;52.07;101633.84;5075416;28;20689;-67
2021/06/07 06:48:16;;;;;;;8.00;2.88;;;19.90;93.20;;;20.11;51.85;101633.41;5074498;28;20579;-67
2021/06/07 06:50:44;;;;;;;10.20;3.20;;;19.90;92.90;;;20.20;51.65;101641.66;5073413;28;20242;-66
2021/06/07 06:53:16;;;;;;;8.20;3.05;;;20.00;92.90;;;20.32;51.11;101648.03;5055893;28;20188;-66
2021/06/07 06:55:44;;;;;;;9.30;3.13;;;20.10;92.80;;;20.41;50.78;101650.13;5073783;28;20235;-67
2021/06/07 06:58:11;;;;;;;10.02;3.30;;;20.20;92.60;;;20.51;51.32;101653.91;5073593;28;20212;-66
2021/06/07 07:00:39;;;;;;;7.32;3.03;;;20.40;92.60;;;20.62;50.69;101651.41;5072037;28;20295;-66
2021/06/07 07:03:09;;;;;;;10.82;3.45;;;20.50;92.20;;;20.71;50.47;101648.16;5073097;28;20206;-66
2021/06/07 07:05:37;;;;;;;11.98;3.58;;;20.60;91.90;;;20.77;50.29;101647.75;5072988;28;20200;-66
2021/06/07 07:08:05;;;;;;;8.43;3.20;;;20.70;91.60;;;20.83;49.63;101644.72;5055237;28;20290;-65
2021/06/07 07:10:33;;;;;;;11.10;3.88;;;20.80;91.50;;;20.92;49.52;101650.28;5071744;28;20199;-65
2021/06/07 07:12:59;;;;;;;9.52;3.35;;;21.00;91.20;;;21.05;49.55;101642.34;5071842;28;20195;-66
2021/06/07 07:15:25;;;;;;;8.57;3.03;;;21.50;90.90;;;21.17;49.26;101643.38;5054982;28;20578;-66
2021/06/07 07:17:51;;;;;;;9.25;3.13;;;22.00;90.40;;;21.27;49.06;101633.81;5055269;28;20707;-65
2021/06/07 07:20:19;;;;;;;10.00;3.10;;;22.40;89.60;;;21.39;48.68;101649.81;5073202;28;20184;-64
2021/06/07 07:22:46;;;;;;;9.80;3.60;;;22.70;88.70;;;21.52;48.24;101649.88;5055013;28;20208;-66
2021/06/07 07:25:13;;;;;;;10.18;3.58;;;22.90;87.80;;;21.58;48.21;101654.75;5054841;28;20199;-65
2021/06/07 07:27:39;;;;;;;9.13;3.17;;;22.80;86.90;;;21.63;48.03;101653.50;5072563;28;20708;-67
2021/06/07 07:30:10;;;;;;;8.48;3.17;;;22.60;87.10;;;21.73;47.88;101643.91;5072538;28;20231;-66
2021/06/07 07:32:36;;;;;;;8.98;2.80;;;22.50;87.60;;;21.83;47.72;101646.81;5072225;28;20238;-67
2021/06/07 07:35:03;;;;;;;10.93;3.17;;;22.50;87.80;;;21.89;47.35;101647.25;5072525;28;20238;-66
2021/06/07 07:37:31;;;;;;;12.85;3.40;;;22.40;87.70;;;21.95;47.30;101651.31;5072207;28;20604;-66
2021/06/07 07:39:57;;;;;;;8.13;3.08;;;22.40;87.40;;;22.05;46.88;101650.53;5071876;28;20275;-66
2021/06/07 07:42:23;;;;;;;10.27;3.38;;;22.40;87.30;;;22.11;46.91;101647.47;5054237;28;20580;-67
2021/06/07 07:44:50;;;;;;;7.95;2.85;;;22.40;86.70;;;22.12;46.43;101641.16;5054395;28;20252;-66
2021/06/07 07:47:18;;;;;;;8.70;2.75;;;22.40;86.70;;;22.18;46.50;101647.88;5072183;28;20622;-66
2021/06/07 07:49:45;;;;;;;8.90;3.50;;;22.50;86.90;;;22.27;46.55;101649.91;5072417;28;20184;-66
2021/06/07 07:52:12;;;;;;;8.98;3.10;;;22.50;86.70;;;22.35;46.37;101648.38;5054405;28;20196;-66
2021/06/07 07:54:39;;;;;;;9.52;3.25;;;22.60;86.00;;;22.37;46.18;101646.44;5054155;28;20188;-65
2021/06/07 07:57:07;;;;;;;7.95;3.40;;;22.70;86.00;;;22.41;45.68;101647.09;5071728;28;20215;-65
2021/06/07 07:59:34;;;;;;;8.45;2.90;;;22.70;85.50;;;22.45;45.74;101637.03;5053922;28;20200;-67
2021/06/07 08:02:01;;;;;;;7.85;3.22;;;22.70;85.30;;;22.50;45.78;101643.75;5071967;28;20206;-66
2021/06/07 08:04:27;;;;;;;8.80;2.72;;;22.80;85.40;;;22.58;45.88;101643.22;5070822;28;20661;-67
2021/06/07 08:06:53;;;;;;;9.38;3.60;;;22.90;85.40;;;22.70;45.44;101643.22;5070563;28;20208;-67
2021/06/07 08:09:20;;;;;;;8.95;2.97;;;23.00;85.40;;;22.84;45.88;101650.22;5071923;28;20216;-67
2021/06/07 08:11:48;;;;;;;8.90;3.05;;;23.20;85.20;;;22.91;45.14;101640.75;5070672;28;20653;-66
2021/06/07 08:14:15;;;;;;;12.15;3.30;;;23.20;84.90;;;22.97;45.67;101643.00;5071789;28;20192;-66
2021/06/07 08:16:41;;;;;;;9.43;3.40;;;23.30;84.70;;;23.01;45.15;101641.78;5053705;28;20212;-67
2021/06/07 08:19:08;;;;;;;9.50;3.80;;;23.40;84.30;;;23.04;45.10;101652.25;5072304;28;20680;-65
2021/06/07 08:21:34;;;;;;;14.23;6.38;;;23.40;84.10;;;23.07;45.28;101650.22;5071971;28;20529;-67
2021/06/07 08:24:01;;;;;;;8.75;3.60;;;23.50;83.90;;;23.10;44.95;101641.09;5072419;28;20183;-67
2021/06/07 08:26:27;;;;;;;8.30;3.10;;;23.50;83.70;;;23.14;44.82;101645.25;5072498;28;20203;-67
2021/06/07 08:28:55;;;;;;;8.05;2.90;;;23.50;83.70;;;23.23;45.01;101639.22;5070160;28;20285;-67
2021/06/07 08:31:21;;;;;;;7.45;3.03;;;23.60;83.50;;;23.23;44.44;101645.41;5071906;28;20229;-67
2021/06/07 08:33:47;;;;;;;7.75;2.95;;;23.60;83.00;;;23.21;44.54;101638.50;5072687;28;20219;-67
2021/06/07 08:36:14;;;;;;;9.27;3.38;;;23.60;83.50;;;23.22;44.36;101634.84;5066380;28;20265;-67
2021/06/07 08:38:41;;;;;;;8.52;3.17;;;23.60;82.60;;;23.23;44.22;101631.19;5075845;28;20227;-66
2021/06/07 08:41:10;;;;;;;8.00;3.15;;;23.60;82.70;;;23.29;44.58;101633.47;5074766;28;20592;-65
2021/06/07 08:43:37;;;;;;;8.98;3.10;;;23.60;83.00;;;23.38;44.28;101624.72;5075819;28;20585;-67
2021/06/07 08:46:05;;;;;;;10.20;3.25;;;23.70;82.70;;;23.41;43.89;101629.84;5075924;28;20207;-66
2021/06/07 08:48:31;;;;;;;9.85;3.30;;;23.80;82.50;;;23.44;44.05;101625.09;5075695;28;20649;-67
2021/06/07 08:51:01;;;;;;;9.27;3.20;;;23.70;82.90;;;23.51;44.51;101630.84;5057791;28;20215;-66
2021/06/07 08:53:27;;;;;;;12.02;3.40;;;23.80;82.60;;;23.59;44.08;101633.78;5057810;28;20199;-66
2021/06/07 08:55:54;;;;;;;12.10;4.40;;;23.90;82.70;;;23.69;43.58;101634.78;5057659;28;20212;-66
2021/06/07 08:58:21;;;;;;;9.85;4.38;;;24.10;81.30;;;23.70;43.29;101632.94;5075458;28;20212;-66
2021/06/07 09:00:47;;;;;;;12.18;4.85;;;24.00;81.30;;;23.72;43.51;101628.34;5075340;28;20656;-67
2021/06/07 09:03:20;;;;;;;9.93;3.75;;;24.00;81.30;;;23.78;43.48;101636.72;5075273;28;20184;-66
2021/06/07 09:05:52;;;;;;;8.45;2.85;;;24.10;80.90;;;23.82;42.85;101632.84;5075357;28;21016;-67
2021/06/07 09:08:19;;;;;;;8.15;3.10;;;24.20;81.10;;;23.88;43.01;101631.53;5075721;28;20194;-67
2021/06/07 09:10:49;;;;;;;6.90;2.88;;;24.20;80.40;;;23.96;42.19;101629.09;5072866;28;20188;-66
2021/06/07 09:13:18;;;;;;;7.35;3.00;;;24.20;80.30;;;24.06;42.73;101633.66;5057224;28;20184;-66
2021/06/07 09:15:47;;;;;;;12.63;3.58;;;24.40;80.50;;;24.18;42.32;101643.38;5075038;28;20219;-66
2021/06/07 09:18:26;;;;;;;7.82;2.83;;;24.50;80.40;;;24.26;42.27;101640.94;5075825;28;20204;-67
2021/06/07 09:20:59;;;;;;;7.88;3.10;;;24.60;79.70;;;24.30;42.39;101631.69;5075331;28;20195;-67
2021/06/07 09:23:41;;;;;;;8.63;3.00;;;24.60;79.60;;;24.35;42.05;101636.66;5057617;28;20192;-68
2021/06/07 09:26:24;;;;;;;10.23;3.38;;;24.70;78.70;;;24.44;41.83;101633.25;5075225;28;20204;-66
2021/06/07 09:28:54;;;;;;;11.23;3.88;;;24.80;78.60;;;24.53;41.69;101636.03;5074343;28;20215;-65
2021/06/07 09:31:28;;;;;;;8.07;3.33;;;24.90;78.80;;;24.65;41.35;101640.41;5075234;28;20183;-66
2021/06/07 09:33:57;;;;;;;12.80;4.68;;;25.00;78.60;;;24.73;41.81;101637.97;5075361;28;20180;-66
2021/06/07 09:36:27;;;;;;;8.45;3.17;;;25.10;78.20;;;24.77;41.27;101636.75;5075713;28;20200;-66
2021/06/07 09:39:15;;;;;;;10.38;3.65;;;25.20;77.80;;;24.83;40.70;101640.78;5074808;28;20252;-66
2021/06/07 09:41:58;;;;;;;8.07;3.30;;;25.20;77.10;;;24.89;40.57;101636.72;5074977;28;20188;-66
2021/06/07 09:44:38;;;;;;;10.60;3.13;;;25.30;76.50;;;24.88;39.32;101632.34;5056798;28;20250;-68
2021/06/07 09:47:18;;;;;;;6.93;2.92;;;25.30;74.60;;;24.82;38.78;101628.34;5075343;28;20753;-68
2021/06/07 09:49:53;;;;;;;9.65;2.97;;;25.20;74.50;;;24.80;39.01;101630.28;5075013;28;20192;-67
2021/06/07 09:52:25;;;;;;;9.23;3.25;;;25.10;74.40;;;24.83;38.66;101629.19;5075052;28;20376;-66
2021/06/07 09:55:18;;;;;;;9.95;3.65;;;25.10;74.90;;;24.89;38.79;101631.34;5075286;28;20196;-66
2021/06/07 09:57:49;;;;;;;10.40;3.85;;;25.20;72.60;;;24.82;38.51;101628.34;5055212;28;20224;-67
2021/06/07 10:00:40;;;;;;;9.18;3.33;;;25.00;73.40;;;24.88;38.76;101627.84;5057185;28;20192;-65
2021/06/07 10:03:19;;;;;;;7.75;3.40;;;25.10;73.60;;;24.98;38.13;101630.59;5057473;28;20219;-67
2021/06/07 10:05:49;;;;;;;8.27;2.90;;;25.20;73.30;;;25.05;37.78;101616.56;5075347;28;20208;-67
2021/06/07 10:08:16;;;;;;;10.43;3.20;;;25.30;72.80;;;25.15;37.88;101614.81;5075401;28;20184;-66
2021/06/07 10:10:42;;;;;;;10.02;3.28;;;25.40;73.00;;;25.28;37.68;101622.69;5075575;28;20180;-67
2021/06/07 10:13:12;;;;;;;15.90;7.88;;;25.50;72.30;;;25.35;37.13;101610.47;5074687;28;20211;-67
2021/06/07 10:15:42;;;;;;;11.85;4.80;;;25.50;71.80;;;25.37;37.42;101613.91;5058626;28;20230;-67
2021/06/07 10:18:12;;;;;;;11.75;5.55;;;25.60;71.80;;;25.43;37.38;101619.59;5075928;28;20688;-67